createdAt,value
2018-07-28T00:01:04.821Z,9.17
2018-07-28T00:03:32.950Z,8.73
2018-07-28T00:06:01.113Z,8.13
2018-07-28T00:08:29.274Z,10.03
2018-07-28T00:10:57.431Z,10.43
2018-07-28T00:13:25.583Z,10.90
2018-07-28T00:15:53.787Z,12.00
2018-07-28T00:18:21.929Z,10.47
2018-07-28T00:20:50.069Z,10.47
2018-07-28T00:23:18.204Z,9.37
2018-07-28T00:25:51.829Z,10.30
2018-07-28T00:28:19.972Z,10.50
2018-07-28T00:30:48.144Z,14.63
2018-07-28T00:33:16.293Z,9.63
2018-07-28T00:35:44.429Z,8.57
2018-07-28T00:38:12.612Z,12.30
2018-07-28T00:40:40.758Z,11.40
2018-07-28T00:43:08.925Z,10.43
2018-07-28T00:45:37.065Z,8.00
2018-07-28T00:48:05.265Z,9.33
2018-07-28T00:50:33.425Z,13.13
2018-07-28T00:53:01.576Z,10.70
2018-07-28T00:55:29.735Z,8.83
2018-07-28T00:57:57.877Z,9.80
2018-07-28T01:00:26.364Z,9.50
2018-07-28T01:02:54.533Z,9.37
2018-07-28T01:05:22.688Z,10.27
2018-07-28T01:07:50.837Z,11.20
2018-07-28T01:10:18.957Z,12.97
2018-07-28T01:12:47.178Z,8.73
2018-07-28T01:15:15.297Z,9.60
2018-07-28T01:17:43.439Z,10.13
2018-07-28T01:20:12.101Z,9.73
2018-07-28T01:22:41.048Z,13.90
2018-07-28T01:25:10.542Z,8.63
2018-07-28T01:27:39.029Z,9.23
2018-07-28T01:30:09.233Z,9.50
2018-07-28T01:32:37.430Z,11.47
2018-07-28T01:35:05.897Z,9.33
2018-07-28T01:37:34.158Z,7.93
2018-07-28T01:40:02.297Z,8.20
2018-07-28T01:42:30.445Z,8.13
2018-07-28T01:44:58.584Z,8.30
2018-07-28T01:47:26.740Z,9.53
2018-07-28T01:49:54.881Z,10.27
2018-07-28T01:52:23.021Z,7.70
2018-07-28T01:54:51.366Z,9.30
2018-07-28T01:57:19.509Z,8.50
2018-07-28T01:59:47.687Z,9.80
2018-07-28T02:02:15.824Z,9.00
2018-07-28T02:04:43.970Z,9.67
2018-07-28T02:07:12.129Z,9.10
2018-07-28T02:09:40.278Z,8.77
2018-07-28T02:12:08.474Z,11.13
2018-07-28T02:14:36.653Z,8.57
2018-07-28T02:17:04.798Z,8.87
2018-07-28T02:19:32.981Z,13.70
2018-07-28T02:22:02.019Z,9.70
2018-07-28T02:24:30.489Z,8.40
2018-07-28T02:26:58.627Z,9.03
2018-07-28T02:29:26.789Z,13.40
2018-07-28T02:31:54.917Z,9.03
2018-07-28T02:34:23.082Z,8.77
2018-07-28T02:36:51.229Z,8.50
2018-07-28T02:39:19.364Z,8.83
2018-07-28T02:41:47.507Z,9.57
2018-07-28T02:44:15.660Z,11.90
2018-07-28T02:46:43.810Z,10.70
2018-07-28T02:49:11.976Z,8.73
2018-07-28T02:51:40.109Z,9.63
2018-07-28T02:54:08.255Z,10.83
2018-07-28T02:56:36.408Z,9.90
2018-07-28T02:59:04.561Z,10.30
2018-07-28T03:01:32.714Z,11.07
2018-07-28T03:04:00.853Z,10.00
2018-07-28T03:06:28.985Z,8.93
2018-07-28T03:08:57.165Z,8.20
2018-07-28T03:11:25.296Z,8.70
2018-07-28T03:13:53.443Z,9.30
2018-07-28T03:16:21.577Z,9.43
2018-07-28T03:18:49.725Z,12.30
2018-07-28T03:21:17.861Z,9.57
2018-07-28T03:23:46.010Z,8.50
2018-07-28T03:26:14.146Z,8.90
2018-07-28T03:28:42.285Z,9.77
2018-07-28T03:31:10.417Z,8.37
2018-07-28T03:33:38.562Z,8.63
2018-07-28T03:36:06.694Z,10.37
2018-07-28T03:38:34.840Z,8.17
2018-07-28T03:41:02.993Z,10.20
2018-07-28T03:43:31.174Z,11.53
2018-07-28T03:45:59.308Z,8.77
2018-07-28T03:48:27.490Z,8.60
2018-07-28T03:50:55.636Z,9.07
2018-07-28T03:53:23.812Z,14.80
2018-07-28T03:55:51.954Z,9.70
2018-07-28T03:58:20.097Z,10.20
2018-07-28T04:00:48.265Z,11.50
2018-07-28T04:03:16.400Z,10.13
2018-07-28T04:05:44.546Z,12.10
2018-07-28T04:08:12.698Z,10.80
2018-07-28T04:10:40.821Z,9.47
2018-07-28T04:13:09.011Z,9.43
2018-07-28T04:15:37.160Z,9.37
2018-07-28T04:18:05.234Z,9.80
2018-07-28T04:20:33.385Z,9.50
2018-07-28T04:23:01.533Z,8.80
2018-07-28T04:25:29.688Z,9.77
2018-07-28T04:27:57.826Z,13.37
2018-07-28T04:30:25.973Z,12.77
2018-07-28T04:32:54.128Z,11.10
2018-07-28T04:35:22.276Z,11.30
2018-07-28T04:37:50.418Z,11.07
2018-07-28T04:40:18.557Z,10.57
2018-07-28T04:42:46.696Z,11.37
2018-07-28T04:45:14.844Z,11.40
2018-07-28T04:47:42.975Z,11.23
2018-07-28T04:50:11.120Z,13.03
2018-07-28T04:52:39.262Z,14.27
2018-07-28T04:55:07.733Z,10.10
2018-07-28T04:57:35.891Z,10.87
2018-07-28T05:00:04.865Z,11.70
2018-07-28T05:02:33.024Z,11.53
2018-07-28T05:05:01.192Z,11.50
2018-07-28T05:07:29.372Z,10.70
2018-07-28T05:09:57.493Z,11.00
2018-07-28T05:12:25.655Z,12.87
2018-07-28T05:14:53.812Z,12.27
2018-07-28T05:17:22.199Z,11.00
2018-07-28T05:19:50.375Z,10.90
2018-07-28T05:22:18.525Z,10.77
2018-07-28T05:24:46.667Z,9.57
2018-07-28T05:27:14.809Z,10.10
2018-07-28T05:29:42.979Z,8.93
2018-07-28T05:32:11.104Z,13.63
2018-07-28T05:34:39.289Z,10.47
2018-07-28T05:37:07.494Z,9.80
2018-07-28T05:39:35.585Z,8.00
2018-07-28T05:42:03.734Z,8.83
2018-07-28T05:44:31.877Z,8.93
2018-07-28T05:47:00.031Z,10.67
2018-07-28T05:49:28.214Z,9.30
2018-07-28T05:51:56.349Z,8.47
2018-07-28T05:54:24.545Z,8.47
2018-07-28T05:56:52.684Z,9.10
2018-07-28T05:59:20.817Z,10.73
2018-07-28T06:01:49.002Z,9.43
2018-07-28T06:04:17.161Z,12.23
2018-07-28T06:06:45.300Z,9.30
2018-07-28T06:09:13.437Z,9.50
2018-07-28T06:11:41.593Z,8.50
2018-07-28T06:14:09.798Z,9.97
2018-07-28T06:16:37.960Z,8.73
2018-07-28T06:19:05.892Z,8.63
2018-07-28T06:21:34.058Z,9.73
2018-07-28T06:24:02.211Z,9.83
2018-07-28T06:26:30.345Z,10.70
2018-07-28T06:28:58.508Z,8.80
2018-07-28T06:31:26.658Z,8.40
2018-07-28T06:33:54.793Z,8.37
2018-07-28T06:36:22.954Z,11.60
2018-07-28T06:38:51.089Z,12.03
2018-07-28T06:41:19.251Z,8.87
2018-07-28T06:43:47.439Z,7.30
2018-07-28T06:46:15.580Z,7.57
2018-07-28T06:48:43.733Z,7.53
2018-07-28T06:51:11.873Z,7.43
2018-07-28T06:53:40.048Z,13.10
2018-07-28T06:56:08.168Z,8.80
2018-07-28T06:58:36.399Z,7.73
2018-07-28T07:01:04.514Z,7.80
2018-07-28T07:03:32.660Z,7.90
2018-07-28T07:06:00.803Z,7.23
2018-07-28T07:08:28.949Z,7.67
2018-07-28T07:10:57.105Z,7.10
2018-07-28T07:13:25.344Z,8.83
2018-07-28T07:15:53.493Z,9.13
2018-07-28T07:18:21.621Z,6.80
2018-07-28T07:20:49.778Z,8.13
2018-07-28T07:23:17.920Z,10.93
2018-07-28T07:25:46.106Z,7.37
2018-07-28T07:28:14.288Z,7.27
2018-07-28T07:30:42.462Z,7.27
2018-07-28T07:33:10.650Z,13.23
2018-07-28T07:35:38.845Z,8.63
2018-07-28T07:38:07.017Z,7.73
2018-07-28T07:40:35.206Z,8.50
2018-07-28T07:43:03.391Z,7.70
2018-07-28T07:45:31.582Z,7.90
2018-07-28T07:47:59.793Z,6.90
2018-07-28T07:50:27.926Z,9.10
2018-07-28T07:52:56.082Z,7.23
2018-07-28T07:55:24.216Z,7.60
2018-07-28T07:57:52.398Z,8.57
2018-07-28T08:00:20.552Z,8.40
2018-07-28T08:02:48.697Z,9.37
2018-07-28T08:05:16.611Z,7.70
2018-07-28T08:07:44.746Z,9.53
2018-07-28T08:10:12.974Z,14.37
2018-07-28T08:12:41.159Z,9.40
2018-07-28T08:15:09.305Z,10.83
2018-07-28T08:17:37.455Z,10.00
2018-07-28T08:20:05.702Z,9.10
2018-07-28T08:22:33.851Z,7.83
2018-07-28T08:25:02.562Z,7.87
2018-07-28T08:27:30.738Z,7.70
2018-07-28T08:29:58.880Z,8.37
2018-07-28T08:32:27.009Z,11.77
2018-07-28T08:34:55.148Z,11.10
2018-07-28T08:37:23.286Z,12.87
2018-07-28T08:39:51.431Z,10.87
2018-07-28T08:42:19.561Z,15.07
2018-07-28T08:44:47.705Z,12.47
2018-07-28T08:47:15.841Z,15.20
2018-07-28T08:49:43.981Z,11.67
2018-07-28T08:52:12.125Z,15.10
2018-07-28T08:54:40.343Z,13.77
2018-07-28T08:57:08.435Z,11.30
2018-07-28T08:59:36.575Z,10.50
2018-07-28T09:02:04.722Z,13.20
2018-07-28T09:04:32.897Z,12.27
2018-07-28T09:07:01.044Z,11.33
2018-07-28T09:09:29.194Z,11.90
2018-07-28T09:11:58.358Z,11.80
2018-07-28T09:14:26.286Z,10.70
2018-07-28T09:16:54.448Z,11.20
2018-07-28T09:19:22.776Z,12.30
2018-07-28T09:21:50.972Z,11.20
2018-07-28T09:24:19.111Z,13.40
2018-07-28T09:26:47.069Z,11.83
2018-07-28T09:29:15.223Z,11.90
2018-07-28T09:31:43.471Z,12.80
2018-07-28T09:34:11.612Z,11.53
2018-07-28T09:36:39.749Z,13.07
2018-07-28T09:39:09.796Z,10.33
2018-07-28T09:41:37.965Z,12.43
2018-07-28T09:44:06.347Z,10.43
2018-07-28T09:46:34.497Z,10.83
2018-07-28T09:49:02.666Z,11.33
2018-07-28T09:51:30.961Z,10.60
2018-07-28T09:53:59.244Z,8.90
2018-07-28T09:56:27.458Z,8.83
2018-07-28T09:58:55.592Z,9.50
2018-07-28T10:01:24.264Z,9.23
2018-07-28T10:03:53.156Z,10.87
2018-07-28T10:06:21.354Z,9.63
2018-07-28T10:08:49.507Z,9.73
2018-07-28T10:11:17.653Z,9.50
2018-07-28T10:13:45.806Z,9.30
2018-07-28T10:16:13.997Z,9.33
2018-07-28T10:18:42.098Z,9.80
2018-07-28T10:21:10.233Z,8.60
2018-07-28T10:23:38.482Z,10.67
2018-07-28T10:26:06.813Z,10.07
2018-07-28T10:28:35.033Z,9.10
2018-07-28T10:31:03.230Z,10.40
2018-07-28T10:33:31.416Z,9.80
2018-07-28T10:35:59.607Z,11.23
2018-07-28T10:38:27.769Z,8.73
2018-07-28T10:40:55.935Z,8.93
2018-07-28T10:43:24.073Z,8.10
2018-07-28T10:45:52.262Z,9.60
2018-07-28T10:48:20.424Z,8.07
2018-07-28T10:50:48.541Z,9.70
2018-07-28T10:53:16.677Z,9.40
2018-07-28T10:55:44.808Z,8.30
2018-07-28T10:58:12.973Z,7.70
2018-07-28T11:00:41.119Z,8.53
2018-07-28T11:03:09.269Z,7.83
2018-07-28T11:05:37.429Z,8.83
2018-07-28T11:08:05.568Z,8.43
2018-07-28T11:10:33.483Z,6.70
2018-07-28T11:13:01.621Z,6.90
2018-07-28T11:15:29.772Z,6.90
2018-07-28T11:17:57.924Z,5.93
2018-07-28T11:20:26.078Z,7.20
2018-07-28T11:22:54.231Z,7.30
2018-07-28T11:25:22.357Z,5.43
2018-07-28T11:27:50.515Z,7.47
2018-07-28T11:30:18.689Z,6.47
2018-07-28T11:32:58.144Z,6.27
2018-07-28T11:35:37.572Z,5.23
2018-07-28T11:38:20.957Z,5.47
2018-07-28T11:41:00.594Z,5.60
2018-07-28T11:43:40.237Z,7.07
2018-07-28T11:46:08.403Z,4.53
2018-07-28T11:48:36.707Z,4.60
2018-07-28T11:51:04.922Z,5.50
2018-07-28T11:53:33.073Z,4.30
2018-07-28T11:56:01.247Z,4.87
2018-07-28T11:58:29.421Z,6.33
2018-07-28T12:00:57.603Z,5.03
2018-07-28T12:03:25.749Z,6.37
2018-07-28T12:05:53.897Z,4.13
2018-07-28T12:08:22.039Z,7.80
2018-07-28T12:10:49.951Z,5.23
2018-07-28T12:13:18.080Z,4.67
2018-07-28T12:15:46.224Z,5.90
2018-07-28T12:18:14.424Z,5.97
2018-07-28T12:20:42.538Z,5.33
2018-07-28T12:23:10.701Z,5.50
2018-07-28T12:25:38.888Z,7.03
2018-07-28T12:28:07.064Z,5.80
2018-07-28T12:30:35.221Z,5.63
2018-07-28T12:33:03.372Z,6.37
2018-07-28T12:35:31.521Z,6.03
2018-07-28T12:37:59.653Z,5.87
2018-07-28T12:40:27.787Z,5.40
2018-07-28T12:42:55.968Z,8.00
2018-07-28T12:45:24.122Z,5.90
2018-07-28T12:47:52.022Z,6.00
2018-07-28T12:50:20.170Z,6.00
2018-07-28T12:52:48.318Z,5.83
2018-07-28T12:55:16.525Z,5.97
2018-07-28T12:57:44.632Z,5.70
2018-07-28T13:00:12.761Z,6.63
2018-07-28T13:02:40.965Z,6.00
2018-07-28T13:05:09.705Z,5.60
2018-07-28T13:07:37.661Z,7.37
2018-07-28T13:10:06.829Z,6.00
2018-07-28T13:12:34.977Z,15.40
2018-07-28T13:15:03.125Z,8.53
2018-07-28T13:17:31.323Z,14.53
2018-07-28T13:19:59.540Z,10.73
2018-07-28T13:22:27.675Z,8.90
2018-07-28T13:24:55.814Z,8.03
2018-07-28T13:27:23.732Z,6.80
2018-07-28T13:29:51.927Z,7.30
2018-07-28T13:32:20.021Z,5.60
2018-07-28T13:34:47.925Z,6.90
2018-07-28T13:37:16.067Z,6.17
2018-07-28T13:39:44.226Z,6.57
2018-07-28T13:42:12.382Z,6.93
2018-07-28T13:44:40.515Z,5.97
2018-07-28T13:47:08.773Z,7.00
2018-07-28T13:49:36.923Z,6.30
2018-07-28T13:52:05.051Z,4.77
2018-07-28T13:54:33.197Z,5.57
2018-07-28T13:57:01.336Z,8.07
2018-07-28T13:59:29.452Z,8.23
2018-07-28T14:01:57.585Z,6.37
2018-07-28T14:04:25.736Z,6.70
2018-07-28T14:06:53.884Z,5.23
2018-07-28T14:09:22.014Z,5.77
2018-07-28T14:11:50.140Z,5.13
2018-07-28T14:14:18.276Z,6.73
2018-07-28T14:16:46.413Z,5.13
2018-07-28T14:19:17.657Z,5.73
2018-07-28T14:21:45.795Z,5.97
2018-07-28T14:24:13.953Z,5.83
2018-07-28T14:26:42.082Z,5.73
2018-07-28T14:29:10.230Z,5.83
2018-07-28T14:31:38.371Z,7.73
2018-07-28T14:34:06.645Z,8.30
2018-07-28T14:36:34.785Z,6.27
2018-07-28T14:39:03.006Z,7.13
2018-07-28T14:41:31.138Z,6.60
2018-07-28T14:43:59.296Z,6.70
2018-07-28T14:46:27.441Z,9.03
2018-07-28T14:48:55.564Z,7.77
2018-07-28T14:51:23.808Z,7.63
2018-07-28T14:53:51.962Z,9.80
2018-07-28T14:56:20.118Z,9.50
2018-07-28T14:58:48.242Z,7.30
2018-07-28T15:01:16.461Z,8.60
2018-07-28T15:03:44.574Z,8.80
2018-07-28T15:06:12.713Z,7.67
2018-07-28T15:08:40.867Z,9.70
2018-07-28T15:11:09.008Z,7.50
2018-07-28T15:13:37.168Z,8.97
2018-07-28T15:16:05.332Z,7.47
2018-07-28T15:18:33.476Z,9.20
2018-07-28T15:21:01.630Z,10.20
2018-07-28T15:23:29.752Z,8.30
2018-07-28T15:25:57.920Z,10.77
2018-07-28T15:28:26.077Z,9.47
2018-07-28T15:30:54.529Z,8.20
2018-07-28T15:33:22.656Z,9.17
2018-07-28T15:35:50.814Z,9.30
2018-07-28T15:38:19.009Z,10.77
2018-07-28T15:40:47.154Z,8.43
2018-07-28T15:43:15.312Z,7.83
2018-07-28T15:45:43.460Z,9.70
2018-07-28T15:48:11.659Z,8.40
2018-07-28T15:50:39.749Z,9.33
2018-07-28T15:53:08.331Z,9.10
2018-07-28T15:55:36.467Z,9.73
2018-07-28T15:58:04.638Z,10.50
2018-07-28T16:00:32.768Z,13.10
2018-07-28T16:03:00.939Z,9.70
2018-07-28T16:05:29.106Z,10.90
2018-07-28T16:07:57.253Z,9.40
2018-07-28T16:10:25.420Z,9.00
2018-07-28T16:12:53.614Z,10.37
2018-07-28T16:15:21.774Z,10.00
2018-07-28T16:17:49.940Z,13.37
2018-07-28T16:20:18.105Z,10.80
2018-07-28T16:22:46.278Z,13.20
2018-07-28T16:25:14.466Z,11.63
2018-07-28T16:27:42.671Z,11.27
2018-07-28T16:30:10.730Z,10.40
2018-07-28T16:32:38.881Z,9.30
2018-07-28T16:35:07.131Z,10.00
2018-07-28T16:37:35.308Z,10.80
2018-07-28T16:40:03.501Z,10.20
2018-07-28T16:42:31.684Z,10.20
2018-07-28T16:44:59.848Z,10.80
2018-07-28T16:47:27.997Z,9.90
2018-07-28T16:49:56.129Z,9.93
2018-07-28T16:52:24.294Z,8.90
2018-07-28T16:54:52.442Z,10.03
2018-07-28T16:57:20.945Z,11.70
2018-07-28T16:59:49.110Z,11.93
2018-07-28T17:02:17.260Z,16.23
2018-07-28T17:04:45.429Z,10.77
2018-07-28T17:07:13.687Z,11.60
2018-07-28T17:09:41.745Z,9.37
2018-07-28T17:12:09.885Z,10.30
2018-07-28T17:14:38.043Z,10.10
2018-07-28T17:17:06.339Z,12.30
2018-07-28T17:19:34.516Z,10.70
2018-07-28T17:22:02.678Z,12.07
2018-07-28T17:24:30.821Z,13.23
2018-07-28T17:26:58.974Z,16.33
2018-07-28T17:29:27.127Z,9.70
2018-07-28T17:31:55.278Z,9.37
2018-07-28T17:34:23.219Z,10.33
2018-07-28T17:36:51.361Z,8.33
2018-07-28T17:39:19.504Z,8.87
2018-07-28T17:41:47.676Z,10.83
2018-07-28T17:44:15.859Z,8.63
2018-07-28T17:46:44.030Z,9.67
2018-07-28T17:49:12.124Z,8.50
2018-07-28T17:51:40.250Z,9.10
2018-07-28T17:54:08.408Z,8.60
2018-07-28T17:56:36.541Z,10.30
2018-07-28T17:59:04.725Z,9.60
2018-07-28T18:01:32.866Z,11.17
2018-07-28T18:04:01.061Z,9.70
2018-07-28T18:06:29.185Z,9.57
2018-07-28T18:08:57.366Z,9.17
2018-07-28T18:11:26.357Z,9.50
2018-07-28T18:13:54.521Z,11.60
2018-07-28T18:16:22.660Z,9.17
2018-07-28T18:18:50.820Z,8.90
2018-07-28T18:21:18.951Z,9.00
2018-07-28T18:23:47.119Z,11.50
2018-07-28T18:26:15.247Z,10.43
2018-07-28T18:28:43.384Z,8.87
2018-07-28T18:31:11.589Z,9.90
2018-07-28T18:33:39.712Z,9.30
2018-07-28T18:36:07.871Z,12.37
2018-07-28T18:38:36.001Z,10.23
2018-07-28T18:41:04.136Z,11.07
2018-07-28T18:43:32.283Z,10.90
2018-07-28T18:46:00.449Z,11.70
2018-07-28T18:48:28.585Z,9.00
2018-07-28T18:50:56.741Z,10.17
2018-07-28T18:53:24.881Z,10.33
2018-07-28T18:55:53.024Z,9.50
2018-07-28T18:58:21.144Z,8.87
2018-07-28T19:00:49.285Z,12.63
2018-07-28T19:03:17.425Z,12.37
2018-07-28T19:05:45.577Z,10.23
2018-07-28T19:08:13.708Z,9.70
2018-07-28T19:10:41.873Z,11.53
2018-07-28T19:13:15.510Z,9.60
2018-07-28T19:15:43.650Z,11.10
2018-07-28T19:18:17.301Z,9.93
2018-07-28T19:20:45.403Z,10.00
2018-07-28T19:23:18.904Z,11.87
2018-07-28T19:25:47.063Z,9.07
2018-07-28T19:28:20.470Z,10.17
2018-07-28T19:30:48.623Z,8.87
2018-07-28T19:33:16.745Z,9.23
2018-07-28T19:35:50.367Z,9.87
2018-07-28T19:38:18.510Z,8.70
2018-07-28T19:40:46.657Z,9.63
2018-07-28T19:43:14.820Z,10.80
2018-07-28T19:45:42.986Z,9.80
2018-07-28T19:48:11.125Z,9.20
2018-07-28T19:50:39.275Z,10.60
2018-07-28T19:53:07.412Z,9.20
2018-07-28T19:55:35.544Z,10.37
2018-07-28T19:58:03.689Z,9.77
2018-07-28T20:00:31.824Z,9.37
2018-07-28T20:02:59.963Z,8.53
2018-07-28T20:05:28.100Z,9.57
2018-07-28T20:07:56.253Z,9.20
2018-07-28T20:10:24.426Z,9.00
2018-07-28T20:12:52.593Z,9.90
2018-07-28T20:15:20.712Z,10.30
2018-07-28T20:17:48.852Z,9.60
2018-07-28T20:20:20.489Z,10.83
2018-07-28T20:22:48.980Z,11.63
2018-07-28T20:25:17.118Z,9.63
2018-07-28T20:27:45.309Z,9.00
2018-07-28T20:30:13.439Z,9.20
2018-07-28T20:32:41.580Z,14.33
2018-07-28T20:35:09.740Z,10.50
2018-07-28T20:37:37.880Z,10.53
2018-07-28T20:40:06.027Z,10.00
2018-07-28T20:42:34.214Z,12.27
2018-07-28T20:45:02.357Z,11.67
2018-07-28T20:47:30.549Z,10.57
2018-07-28T20:49:58.641Z,12.10
2018-07-28T20:52:26.794Z,10.83
2018-07-28T20:54:55.241Z,11.80
2018-07-28T20:57:23.388Z,16.57
2018-07-28T20:59:51.535Z,11.40
2018-07-28T21:02:19.688Z,10.90
2018-07-28T21:04:47.881Z,10.80
2018-07-28T21:07:16.010Z,10.47
2018-07-28T21:09:44.312Z,12.57
2018-07-28T21:12:12.449Z,10.93
2018-07-28T21:14:40.629Z,10.00
2018-07-28T21:17:08.784Z,11.80
2018-07-28T21:19:36.923Z,12.13
2018-07-28T21:22:05.073Z,13.60
2018-07-28T21:24:33.250Z,11.73
2018-07-28T21:27:01.402Z,11.00
2018-07-28T21:29:29.597Z,11.57
2018-07-28T21:31:57.768Z,14.23
2018-07-28T21:34:25.924Z,15.30
2018-07-28T21:36:54.092Z,9.80
2018-07-28T21:39:22.233Z,12.47
2018-07-28T21:41:50.373Z,12.90
2018-07-28T21:44:18.525Z,14.30
2018-07-28T21:46:46.668Z,10.50
2018-07-28T21:49:14.835Z,12.00
2018-07-28T21:51:43.001Z,12.50
2018-07-28T21:54:11.213Z,14.30
2018-07-28T21:56:39.356Z,12.80
2018-07-28T21:59:07.520Z,12.23
2018-07-28T22:01:35.693Z,14.23
2018-07-28T22:04:04.017Z,12.60
2018-07-28T22:06:33.529Z,12.50
2018-07-28T22:09:01.666Z,10.90
2018-07-28T22:11:29.816Z,14.63
2018-07-28T22:13:57.968Z,20.03
2018-07-28T22:16:26.109Z,24.20
2018-07-28T22:18:54.292Z,23.63
2018-07-28T22:21:22.430Z,21.60
2018-07-28T22:23:50.593Z,22.03
2018-07-28T22:26:18.728Z,20.47
2018-07-28T22:28:46.890Z,22.40
2018-07-28T22:31:15.033Z,22.50
2018-07-28T22:33:43.178Z,24.63
2018-07-28T22:36:11.322Z,24.87
2018-07-28T22:38:39.465Z,18.27
2018-07-28T22:41:07.650Z,18.53
2018-07-28T22:43:35.811Z,19.97
2018-07-28T22:46:03.956Z,21.30
2018-07-28T22:48:32.110Z,20.87
2018-07-28T22:51:00.237Z,21.03
2018-07-28T22:53:28.370Z,21.47
2018-07-28T22:55:56.500Z,16.57
2018-07-28T22:58:24.666Z,13.40
2018-07-28T23:00:52.821Z,11.97
2018-07-28T23:03:20.956Z,12.57
2018-07-28T23:05:49.085Z,12.10
2018-07-28T23:08:17.224Z,13.97
2018-07-28T23:10:45.372Z,15.93
2018-07-28T23:13:13.498Z,22.47
2018-07-28T23:15:41.654Z,27.07
2018-07-28T23:18:09.813Z,24.13
2018-07-28T23:20:37.951Z,25.57
2018-07-28T23:23:06.127Z,20.73
2018-07-28T23:25:34.265Z,19.07
2018-07-28T23:28:02.417Z,17.80
2018-07-28T23:30:30.576Z,21.03
2018-07-28T23:32:58.713Z,17.93
2018-07-28T23:35:26.848Z,19.20
2018-07-28T23:37:54.981Z,12.97
2018-07-28T23:40:23.167Z,13.10
2018-07-28T23:42:51.309Z,10.87
2018-07-28T23:45:19.497Z,16.27
2018-07-28T23:47:47.690Z,15.53
2018-07-28T23:50:15.885Z,14.17
2018-07-28T23:52:44.045Z,19.10
2018-07-28T23:55:12.240Z,16.27
2018-07-28T23:57:40.152Z,16.67
